Apulia Station, New York
Current Conditions -  °F | °C
As of 3:15 PM on Monday 24 Nov 2014 (Local Time) from KN03 Reporting Station
Overcast Overcast  
Wind Chill: 19°   Ceiling: 9500
Heat Index: 19°   Visibility: 10mi
Dew Point: 10°   Wind: 20mph
Humidity: 56%   Direction: 190°S
Pressure: 29.41"   Gusts: 30mph
Location:  42.82°N, 76.07°W
Report Text: KN03 242015Z AUTO 19017G26KT 10SM SCT060 SCT070 OVC095 19/10 A2941 RMK AO2
Loading
Personal Weather Stations






























Interactive Weather Map New forecast layout! Learn more

10-Day Weather Forecast

Advertisements
Track Severe Weather on mobile